Time;durP1;ratioP1;P1;durP2;ratioP2;P2;SDS_P1;SDS_P2;PMS_P1;PMS_P2;Temp;Humidity;BMP_temperature;BMP_pressure;BME280_temperature;BME280_humidity;BME280_pressure;Samples;Min_cycle;Max_cycle;Signal;HPM_P1;HPM_P2
2023/05/20 00:02:19;;;;;;;;;;;15.40;74.20;;;;;;5046752;28;19916;-66
2023/05/20 00:04:44;;;;;;;;;;;15.30;74.20;;;;;;5024914;27;20326;-66
2023/05/20 00:07:10;;;;;;;;;;;15.30;74.30;;;;;;5046745;28;19909;-66
2023/05/20 00:09:37;;;;;;;;;;;15.30;74.20;;;;;;5046536;28;19925;-66
2023/05/20 00:12:02;;;;;;;;;;;15.30;74.50;;;;;;5046672;28;20003;-67
2023/05/20 00:14:28;;;;;;;;;;;15.20;74.40;;;;;;5046649;28;20020;-66
2023/05/20 00:16:53;;;;;;;;;;;15.20;74.50;;;;;;5046460;28;19908;-67
2023/05/20 00:19:19;;;;;;;;;;;15.20;74.60;;;;;;5046018;28;19917;-66
2023/05/20 00:21:44;;;;;;;;;;;15.10;74.60;;;;;;5046442;28;19921;-66
2023/05/20 00:24:10;;;;;;;;;;;15.10;74.60;;;;;;5045929;28;20373;-66
2023/05/20 00:26:35;;;;;;;;;;;15.10;74.80;;;;;;5045177;28;19964;-66
2023/05/20 00:29:01;;;;;;;;;;;15.00;74.60;;;;;;5045268;28;19920;-67
2023/05/20 00:31:27;;;;;;;;;;;15.00;74.70;;;;;;5045521;28;19912;-66
2023/05/20 00:33:52;;;;;;;;;;;15.00;74.70;;;;;;5044565;28;19920;-66
2023/05/20 00:36:18;;;;;;;;;;;15.00;74.80;;;;;;5045174;28;19965;-67
2023/05/20 00:38:43;;;;;;;;;;;14.90;74.90;;;;;;5044868;28;19955;-66
2023/05/20 00:41:09;;;;;;;;;;;14.90;74.90;;;;;;5044975;28;19917;-67
2023/05/20 00:43:34;;;;;;;;;;;14.90;75.00;;;;;;5043979;28;20009;-66
2023/05/20 00:46:00;;;;;;;;;;;14.90;75.10;;;;;;5044838;28;20392;-66
2023/05/20 00:48:28;;;;;;;;;;;14.90;75.20;;;;;;5045754;28;19921;-66
2023/05/20 00:50:53;;;;;;;;;;;14.80;75.20;;;;;;5028014;28;19913;-66
2023/05/20 00:53:20;;;;;;;;;;;14.80;75.20;;;;;;5045718;28;20239;-66
2023/05/20 00:55:45;;;;;;;;;;;14.80;75.30;;;;;;5045944;28;19982;-66
2023/05/20 00:58:11;;;;;;;;;;;14.70;75.10;;;;;;5045658;28;19920;-66
2023/05/20 01:00:36;;;;;;;;;;;14.70;75.40;;;;;;5046049;28;19913;-66
2023/05/20 01:03:02;;;;;;;;;;;14.70;75.30;;;;;;5027912;28;19912;-66
2023/05/20 01:05:27;;;;;;;;;;;14.70;75.40;;;;;;5045671;28;19948;-66
2023/05/20 01:07:53;;;;;;;;;;;14.60;75.50;;;;;;5045913;28;19955;-66
2023/05/20 01:10:19;;;;;;;;;;;14.60;75.40;;;;;;5027629;28;20040;-66
2023/05/20 01:12:53;;;;;;;;;;;14.60;75.50;;;;;;5045455;28;19913;-66
2023/05/20 01:15:21;;;;;;;;;;;14.60;75.50;;;;;;5027647;28;19919;-66
2023/05/20 01:17:48;;;;;;;;;;;14.50;75.60;;;;;;5045758;28;20017;-66
2023/05/20 01:20:14;;;;;;;;;;;14.50;75.70;;;;;;5045481;28;19933;-67
2023/05/20 01:22:51;;;;;;;;;;;14.50;75.70;;;;;;5045366;28;20505;-66
2023/05/20 01:25:16;;;;;;;;;;;14.50;75.80;;;;;;5045291;28;19917;-66
2023/05/20 01:27:42;;;;;;;;;;;14.40;75.70;;;;;;5045637;28;19919;-66
2023/05/20 01:30:08;;;;;;;;;;;14.40;76.40;;;;;;5045451;28;19913;-66
2023/05/20 01:32:36;;;;;;;;;;;14.40;75.90;;;;;;5036701;28;19909;-66
2023/05/20 01:35:03;;;;;;;;;;;14.40;75.80;;;;;;5036836;28;19920;-66
2023/05/20 01:37:30;;;;;;;;;;;14.40;76.10;;;;;;5045538;28;19920;-66
2023/05/20 01:39:56;;;;;;;;;;;14.30;76.00;;;;;;5045274;28;20019;-66
2023/05/20 01:42:21;;;;;;;;;;;14.30;76.40;;;;;;5027345;28;20027;-66
2023/05/20 01:44:47;;;;;;;;;;;14.20;75.90;;;;;;5043329;28;19916;-67
2023/05/20 01:47:12;;;;;;;;;;;14.20;75.70;;;;;;5045302;28;19913;-66
2023/05/20 01:49:38;;;;;;;;;;;14.30;76.50;;;;;;5045188;28;19909;-66
2023/05/20 01:52:04;;;;;;;;;;;14.20;76.30;;;;;;5045132;28;20626;-66
2023/05/20 01:54:29;;;;;;;;;;;14.20;76.40;;;;;;5045160;28;20441;-66
2023/05/20 01:56:55;;;;;;;;;;;14.10;76.00;;;;;;5045443;28;20692;-66
2023/05/20 01:59:20;;;;;;;;;;;14.10;76.00;;;;;;5045170;28;20365;-66
2023/05/20 02:01:46;;;;;;;;;;;14.10;76.30;;;;;;5044927;28;19913;-66
2023/05/20 02:04:11;;;;;;;;;;;14.10;76.50;;;;;;5044979;28;20027;-66
2023/05/20 02:06:37;;;;;;;;;;;14.00;76.20;;;;;;5045008;28;20326;-66
2023/05/20 02:09:02;;;;;;;;;;;14.00;76.20;;;;;;5044849;28;19913;-66
2023/05/20 02:11:28;;;;;;;;;;;14.00;76.70;;;;;;5045404;28;20011;-66
2023/05/20 02:13:53;;;;;;;;;;;14.00;76.50;;;;;;5044689;28;20433;-66
2023/05/20 02:16:19;;;;;;;;;;;14.00;77.00;;;;;;5045175;28;19917;-66
2023/05/20 02:18:44;;;;;;;;;;;13.90;77.00;;;;;;5026823;28;19919;-66
2023/05/20 02:21:10;;;;;;;;;;;13.90;76.70;;;;;;5044574;28;19920;-66
2023/05/20 02:23:35;;;;;;;;;;;13.90;77.20;;;;;;5044344;28;19938;-66
2023/05/20 02:26:01;;;;;;;;;;;13.90;76.80;;;;;;5044689;28;19927;-66
2023/05/20 02:28:26;;;;;;;;;;;13.90;76.80;;;;;;5044799;28;19989;-66
2023/05/20 02:30:52;;;;;;;;;;;13.80;76.60;;;;;;5044672;28;19913;-66
2023/05/20 02:33:18;;;;;;;;;;;13.80;77.40;;;;;;5044355;28;20454;-66
2023/05/20 02:35:43;;;;;;;;;;;13.80;77.10;;;;;;5044479;28;19951;-66
2023/05/20 02:38:12;;;;;;;;;;;13.80;77.50;;;;;;5044514;28;19916;-66
2023/05/20 02:40:37;;;;;;;;;;;13.80;76.80;;;;;;5044372;28;20394;-66
2023/05/20 02:43:03;;;;;;;;;;;13.80;76.90;;;;;;5045695;28;19938;-66
2023/05/20 02:45:28;;;;;;;;;;;13.80;77.00;;;;;;5045710;28;19939;-66
2023/05/20 02:47:54;;;;;;;;;;;13.70;76.90;;;;;;5048088;28;19946;-66
2023/05/20 02:50:19;;;;;;;;;;;13.70;77.20;;;;;;5039395;27;20340;-66
2023/05/20 02:52:46;;;;;;;;;;;13.70;77.60;;;;;;5046566;28;19920;-66
2023/05/20 02:55:11;;;;;;;;;;;13.70;77.30;;;;;;5048019;28;19912;-66
2023/05/20 02:57:37;;;;;;;;;;;13.60;77.50;;;;;;5048118;28;20489;-66
2023/05/20 03:00:07;;;;;;;;;;;13.60;77.50;;;;;;5029911;28;20277;-66
2023/05/20 03:02:33;;;;;;;;;;;13.60;77.50;;;;;;5047902;28;19919;-66
2023/05/20 03:04:58;;;;;;;;;;;13.60;77.30;;;;;;5047113;28;20530;-66
2023/05/20 03:07:24;;;;;;;;;;;13.60;77.40;;;;;;5029849;28;20729;-66
2023/05/20 03:09:49;;;;;;;;;;;13.60;78.40;;;;;;5029672;28;19913;-66
2023/05/20 03:12:15;;;;;;;;;;;13.50;77.90;;;;;;5047500;27;19973;-66
2023/05/20 03:14:41;;;;;;;;;;;13.50;78.10;;;;;;5047577;28;20038;-66
2023/05/20 03:17:07;;;;;;;;;;;13.50;78.10;;;;;;5047612;28;19916;-66
2023/05/20 03:19:32;;;;;;;;;;;13.50;78.00;;;;;;5047296;28;19935;-66
2023/05/20 03:21:59;;;;;;;;;;;13.50;78.30;;;;;;5047012;28;20424;-66
2023/05/20 03:24:25;;;;;;;;;;;13.40;78.00;;;;;;5047223;28;19995;-66
2023/05/20 03:26:50;;;;;;;;;;;13.40;78.10;;;;;;5047304;28;20011;-66
2023/05/20 03:29:16;;;;;;;;;;;13.40;77.80;;;;;;5047411;28;19913;-66
2023/05/20 03:31:42;;;;;;;;;;;13.40;78.30;;;;;;5047391;28;19995;-66
2023/05/20 03:34:08;;;;;;;;;;;13.40;78.00;;;;;;5046872;28;20421;-66
2023/05/20 03:36:33;;;;;;;;;;;13.30;78.40;;;;;;5047362;28;20335;-66
2023/05/20 03:38:59;;;;;;;;;;;13.30;78.30;;;;;;5047199;28;20662;-66
2023/05/20 03:41:25;;;;;;;;;;;13.30;78.40;;;;;;5047435;28;20299;-66
2023/05/20 03:43:50;;;;;;;;;;;13.30;78.00;;;;;;5045339;28;20004;-66
2023/05/20 03:46:15;;;;;;;;;;;13.30;78.40;;;;;;5046888;28;19989;-66
2023/05/20 03:48:41;;;;;;;;;;;13.30;78.40;;;;;;5047027;28;19971;-66
2023/05/20 03:51:07;;;;;;;;;;;13.30;78.30;;;;;;5047185;28;19913;-66
2023/05/20 03:53:32;;;;;;;;;;;13.20;78.30;;;;;;5046780;28;19917;-66
2023/05/20 03:55:58;;;;;;;;;;;13.30;78.50;;;;;;5046409;27;19913;-66
2023/05/20 03:58:24;;;;;;;;;;;13.20;78.10;;;;;;5046955;28;19944;-66
2023/05/20 04:00:49;;;;;;;;;;;13.20;78.30;;;;;;5046837;28;19917;-66
2023/05/20 04:03:15;;;;;;;;;;;13.20;78.20;;;;;;5046679;28;19935;-66
2023/05/20 04:05:40;;;;;;;;;;;13.20;78.30;;;;;;5046631;28;20417;-66
2023/05/20 04:08:06;;;;;;;;;;;13.20;78.50;;;;;;5046623;28;19948;-66
2023/05/20 04:10:32;;;;;;;;;;;13.20;77.90;;;;;;5040168;28;19913;-66
2023/05/20 04:12:57;;;;;;;;;;;13.20;78.10;;;;;;5046522;28;20568;-66
2023/05/20 04:15:23;;;;;;;;;;;13.10;77.80;;;;;;5046469;28;20378;-66
2023/05/20 04:17:51;;;;;;;;;;;13.10;77.70;;;;;;5046571;28;19952;-66
2023/05/20 04:20:17;;;;;;;;;;;13.10;77.70;;;;;;5046298;28;19913;-66
2023/05/20 04:22:47;;;;;;;;;;;13.10;77.90;;;;;;5046195;28;19931;-66
2023/05/20 04:25:12;;;;;;;;;;;13.10;77.80;;;;;;5045975;28;19913;-66
2023/05/20 04:27:38;;;;;;;;;;;13.10;77.80;;;;;;5046748;28;19967;-66
2023/05/20 04:30:05;;;;;;;;;;;13.10;77.80;;;;;;5046433;28;20557;-66
2023/05/20 04:32:31;;;;;;;;;;;13.10;77.90;;;;;;5046064;28;20326;-66
2023/05/20 04:34:57;;;;;;;;;;;13.10;77.80;;;;;;5045992;28;19913;-66
2023/05/20 04:37:22;;;;;;;;;;;13.10;77.90;;;;;;5046451;28;19961;-66
2023/05/20 04:39:48;;;;;;;;;;;13.10;78.10;;;;;;5046069;28;19913;-66
2023/05/20 04:42:16;;;;;;;;;;;13.10;78.00;;;;;;5045821;28;19920;-66
2023/05/20 04:44:44;;;;;;;;;;;13.10;78.00;;;;;;5045609;28;19919;-66
2023/05/20 04:47:10;;;;;;;;;;;13.10;77.90;;;;;;5045743;28;19921;-66
2023/05/20 04:49:36;;;;;;;;;;;13.10;77.90;;;;;;5046121;28;19908;-66
2023/05/20 04:52:03;;;;;;;;;;;13.10;77.90;;;;;;5045819;28;20571;-66
2023/05/20 04:54:29;;;;;;;;;;;13.10;78.00;;;;;;5046069;28;19938;-66
2023/05/20 04:56:55;;;;;;;;;;;13.10;77.90;;;;;;5028302;28;20333;-66
2023/05/20 04:59:21;;;;;;;;;;;13.10;78.00;;;;;;5046407;28;19951;-66
2023/05/20 05:01:46;;;;;;;;;;;13.10;78.00;;;;;;5045819;28;19982;-66
2023/05/20 05:04:12;;;;;;;;;;;13.10;78.00;;;;;;5045290;28;20013;-66
2023/05/20 05:06:37;;;;;;;;;;;13.10;78.10;;;;;;5044691;28;19916;-66
2023/05/20 05:09:03;;;;;;;;;;;13.10;78.10;;;;;;5045950;28;19920;-66
2023/05/20 05:11:29;;;;;;;;;;;13.10;78.10;;;;;;5045887;28;19919;-66
2023/05/20 05:13:55;;;;;;;;;;;13.20;78.20;;;;;;5045360;28;20019;-66
2023/05/20 05:16:21;;;;;;;;;;;13.20;78.20;;;;;;5045820;28;20007;-66
2023/05/20 05:18:46;;;;;;;;;;;13.10;78.20;;;;;;5045560;28;20357;-66
2023/05/20 05:21:12;;;;;;;;;;;13.10;78.10;;;;;;5045608;28;19921;-66
2023/05/20 05:23:37;;;;;;;;;;;13.20;78.20;;;;;;5045112;28;20276;-67
2023/05/20 05:26:03;;;;;;;;;;;13.10;78.00;;;;;;5045686;28;19916;-66
2023/05/20 05:28:28;;;;;;;;;;;13.20;78.20;;;;;;5045522;28;20004;-66
2023/05/20 05:30:57;;;;;;;;;;;13.20;78.20;;;;;;5040640;28;19913;-66
2023/05/20 05:33:23;;;;;;;;;;;13.20;78.20;;;;;;5026972;28;19913;-66
2023/05/20 05:35:48;;;;;;;;;;;13.20;78.10;;;;;;5027561;28;19913;-66
2023/05/20 05:38:14;;;;;;;;;;;13.20;78.10;;;;;;5027790;28;19908;-66
2023/05/20 05:40:39;;;;;;;;;;;13.20;78.20;;;;;;5045353;28;19912;-66
2023/05/20 05:43:05;;;;;;;;;;;13.20;78.30;;;;;;5045107;28;19972;-66
2023/05/20 05:45:30;;;;;;;;;;;13.20;78.30;;;;;;5026681;28;19917;-66
2023/05/20 05:47:56;;;;;;;;;;;13.20;78.20;;;;;;5045783;28;20344;-66
2023/05/20 05:50:22;;;;;;;;;;;13.20;78.10;;;;;;5045381;28;19917;-66
2023/05/20 05:52:47;;;;;;;;;;;13.20;78.10;;;;;;5045060;28;19913;-66
2023/05/20 05:55:13;;;;;;;;;;;13.20;78.20;;;;;;5045291;28;19986;-66
2023/05/20 05:57:38;;;;;;;;;;;13.20;78.10;;;;;;5045353;28;19913;-66
2023/05/20 06:00:04;;;;;;;;;;;13.20;78.10;;;;;;5045078;28;19912;-66
2023/05/20 06:02:34;;;;;;;;;;;13.30;78.20;;;;;;5045207;28;19913;-66
2023/05/20 06:05:03;;;;;;;;;;;13.30;78.20;;;;;;5045090;28;20281;-66
2023/05/20 06:07:29;;;;;;;;;;;13.30;78.00;;;;;;5043736;28;19920;-66
2023/05/20 06:09:54;;;;;;;;;;;13.30;78.10;;;;;;5045150;28;19928;-66
2023/05/20 06:12:20;;;;;;;;;;;13.30;78.10;;;;;;5045124;28;19955;-66
2023/05/20 06:14:46;;;;;;;;;;;13.30;77.90;;;;;;5045072;28;19963;-66
2023/05/20 06:17:12;;;;;;;;;;;13.40;78.10;;;;;;5045267;28;20003;-66
2023/05/20 06:19:37;;;;;;;;;;;13.40;78.40;;;;;;5048286;28;20027;-66
2023/05/20 06:22:03;;;;;;;;;;;13.40;78.10;;;;;;5048208;28;19945;-66
2023/05/20 06:24:28;;;;;;;;;;;13.40;78.00;;;;;;5048316;28;19909;-66
2023/05/20 06:26:54;;;;;;;;;;;13.40;78.00;;;;;;5048412;28;19921;-66
2023/05/20 06:29:19;;;;;;;;;;;13.40;77.90;;;;;;5048434;28;19913;-66
2023/05/20 06:31:45;;;;;;;;;;;13.40;77.90;;;;;;5048163;28;19909;-66
2023/05/20 06:34:10;;;;;;;;;;;13.40;77.80;;;;;;5030238;28;19909;-66
2023/05/20 06:36:36;;;;;;;;;;;13.40;77.90;;;;;;5048209;28;19913;-66
2023/05/20 06:39:02;;;;;;;;;;;13.50;77.80;;;;;;5047849;28;19924;-66
2023/05/20 06:41:28;;;;;;;;;;;13.60;77.80;;;;;;5048250;28;19964;-66
2023/05/20 06:43:53;;;;;;;;;;;13.70;77.70;;;;;;5045889;28;19913;-66
2023/05/20 06:46:19;;;;;;;;;;;13.70;77.60;;;;;;5047728;28;19925;-66
2023/05/20 06:48:44;;;;;;;;;;;13.70;77.60;;;;;;5030017;28;19913;-66
2023/05/20 06:51:10;;;;;;;;;;;13.70;77.50;;;;;;5048132;28;19951;-66
2023/05/20 06:53:35;;;;;;;;;;;13.80;77.40;;;;;;5047731;28;20023;-66
2023/05/20 06:56:01;;;;;;;;;;;13.80;77.30;;;;;;5048074;28;19908;-66
2023/05/20 06:58:27;;;;;;;;;;;13.90;77.30;;;;;;5048089;28;19948;-66
2023/05/20 07:00:52;;;;;;;;;;;13.90;77.70;;;;;;5048084;28;19920;-66
2023/05/20 07:03:18;;;;;;;;;;;13.90;77.40;;;;;;5048099;28;20396;-66
2023/05/20 07:05:43;;;;;;;;;;;13.90;77.50;;;;;;5047154;28;20285;-66
2023/05/20 07:08:09;;;;;;;;;;;13.90;77.40;;;;;;5047837;28;19913;-66
2023/05/20 07:10:34;;;;;;;;;;;14.00;77.10;;;;;;5047558;28;19912;-66
2023/05/20 07:13:00;;;;;;;;;;;14.00;77.10;;;;;;5047716;28;19913;-66
2023/05/20 07:15:26;;;;;;;;;;;14.00;77.00;;;;;;5047876;28;20281;-66
2023/05/20 07:17:52;;;;;;;;;;;14.10;77.20;;;;;;5047596;28;19913;-66
2023/05/20 07:20:17;;;;;;;;;;;14.20;77.00;;;;;;5047336;28;19913;-66
2023/05/20 07:22:43;;;;;;;;;;;14.20;77.00;;;;;;5047284;28;20002;-66
2023/05/20 07:25:08;;;;;;;;;;;14.30;77.20;;;;;;5013089;28;19915;-66
2023/05/20 07:27:34;;;;;;;;;;;14.30;76.90;;;;;;5047461;28;19909;-66
2023/05/20 07:30:00;;;;;;;;;;;14.30;76.80;;;;;;5046373;28;19913;-66
2023/05/20 07:32:25;;;;;;;;;;;14.40;76.80;;;;;;5047312;28;19920;-66
2023/05/20 07:34:51;;;;;;;;;;;14.50;76.80;;;;;;5046961;28;19993;-66
2023/05/20 07:37:16;;;;;;;;;;;14.60;76.60;;;;;;5029318;28;19925;-66
2023/05/20 07:39:42;;;;;;;;;;;14.60;76.50;;;;;;5047016;28;19909;-66
2023/05/20 07:42:07;;;;;;;;;;;14.70;76.50;;;;;;5046532;28;19913;-66
2023/05/20 07:44:33;;;;;;;;;;;14.70;77.10;;;;;;5046401;28;19909;-66
2023/05/20 07:46:59;;;;;;;;;;;14.80;76.30;;;;;;5047315;28;19920;-66
2023/05/20 07:49:25;;;;;;;;;;;14.80;76.90;;;;;;5047216;28;20304;-66
2023/05/20 07:51:50;;;;;;;;;;;14.80;76.30;;;;;;5047110;28;19992;-66
2023/05/20 07:54:16;;;;;;;;;;;14.90;76.10;;;;;;5029314;28;19952;-66
2023/05/20 07:56:42;;;;;;;;;;;15.00;76.60;;;;;;5046948;28;20406;-67
2023/05/20 07:59:07;;;;;;;;;;;15.00;76.50;;;;;;5046987;28;19924;-66
2023/05/20 08:01:33;;;;;;;;;;;15.10;75.80;;;;;;5047069;28;19913;-66
2023/05/20 08:03:59;;;;;;;;;;;15.10;76.10;;;;;;5046722;28;19987;-66
2023/05/20 08:06:24;;;;;;;;;;;15.20;76.30;;;;;;5046795;28;20015;-66
2023/05/20 08:08:50;;;;;;;;;;;15.20;75.60;;;;;;5046680;28;20024;-66
2023/05/20 08:11:15;;;;;;;;;;;15.30;75.50;;;;;;5046811;28;19951;-66
2023/05/20 08:13:41;;;;;;;;;;;15.40;75.40;;;;;;5046432;28;19913;-66
2023/05/20 08:16:06;;;;;;;;;;;15.40;75.40;;;;;;5046949;28;19920;-66
2023/05/20 08:18:33;;;;;;;;;;;15.50;75.70;;;;;;5046946;28;20628;-66
2023/05/20 08:20:59;;;;;;;;;;;15.50;75.50;;;;;;5046724;28;19923;-66
2023/05/20 08:23:24;;;;;;;;;;;15.60;75.90;;;;;;5046484;28;19913;-66
2023/05/20 08:25:50;;;;;;;;;;;15.60;75.50;;;;;;5046264;28;20250;-66
2023/05/20 08:28:16;;;;;;;;;;;15.60;75.70;;;;;;5046516;28;20380;-66
2023/05/20 08:30:41;;;;;;;;;;;15.60;75.60;;;;;;5046003;28;19917;-66
2023/05/20 08:33:07;;;;;;;;;;;15.70;75.50;;;;;;5046252;28;19912;-66
2023/05/20 08:35:32;;;;;;;;;;;15.70;75.30;;;;;;5046271;28;19919;-66
2023/05/20 08:37:58;;;;;;;;;;;15.80;75.50;;;;;;5046318;28;19989;-66
2023/05/20 08:40:25;;;;;;;;;;;15.80;75.50;;;;;;5046022;28;19965;-66
2023/05/20 08:42:53;;;;;;;;;;;15.90;75.30;;;;;;5045972;28;19920;-66
2023/05/20 08:45:20;;;;;;;;;;;15.90;75.30;;;;;;5027423;28;19920;-66
2023/05/20 08:47:45;;;;;;;;;;;16.00;75.20;;;;;;5045897;28;19909;-66
2023/05/20 08:50:12;;;;;;;;;;;16.00;75.20;;;;;;5114645;27;19913;-66
2023/05/20 08:52:41;;;;;;;;;;;16.10;75.30;;;;;;5045779;28;20003;-66
2023/05/20 08:55:08;;;;;;;;;;;16.10;75.20;;;;;;5046026;28;20471;-66
2023/05/20 08:57:35;;;;;;;;;;;16.20;75.30;;;;;;5046188;28;20353;-66
2023/05/20 09:00:07;;;;;;;;;;;16.30;75.00;;;;;;5045830;28;19966;-66
2023/05/20 09:02:35;;;;;;;;;;;16.30;74.80;;;;;;5045371;28;20007;-67
2023/05/20 09:05:00;;;;;;;;;;;16.40;74.90;;;;;;5045755;28;19961;-66
2023/05/20 09:07:27;;;;;;;;;;;16.40;74.90;;;;;;5046269;28;20322;-66
2023/05/20 09:09:53;;;;;;;;;;;16.40;74.80;;;;;;5028140;28;20494;-67
2023/05/20 09:12:20;;;;;;;;;;;16.50;75.00;;;;;;5045673;28;19913;-67
2023/05/20 09:14:45;;;;;;;;;;;16.50;75.00;;;;;;5046000;28;19908;-67
2023/05/20 09:17:11;;;;;;;;;;;16.50;74.90;;;;;;5045683;28;19919;-67
2023/05/20 09:19:37;;;;;;;;;;;16.60;75.10;;;;;;5045520;28;20517;-67
2023/05/20 09:22:02;;;;;;;;;;;16.60;75.20;;;;;;5045393;28;19931;-66
2023/05/20 09:24:28;;;;;;;;;;;16.60;74.80;;;;;;5045608;28;19917;-66
2023/05/20 09:26:54;;;;;;;;;;;16.70;74.90;;;;;;5045641;28;20640;-67
2023/05/20 09:29:20;;;;;;;;;;;16.70;74.70;;;;;;5045735;28;19917;-67
2023/05/20 09:31:46;;;;;;;;;;;16.80;74.90;;;;;;5045452;28;19940;-66
2023/05/20 09:34:12;;;;;;;;;;;16.80;74.70;;;;;;5045245;28;19959;-66
2023/05/20 09:36:38;;;;;;;;;;;16.80;74.80;;;;;;5045855;28;19916;-66
2023/05/20 09:39:04;;;;;;;;;;;16.80;74.70;;;;;;5045374;28;19913;-66
2023/05/20 09:41:37;;;;;;;;;;;16.90;74.90;;;;;;5045363;28;19990;-67
2023/05/20 09:44:03;;;;;;;;;;;16.90;74.70;;;;;;5044839;28;19989;-66
2023/05/20 09:46:30;;;;;;;;;;;16.90;74.80;;;;;;5044863;28;19916;-66
2023/05/20 09:48:55;;;;;;;;;;;17.00;74.90;;;;;;5045126;28;20444;-66
2023/05/20 09:51:22;;;;;;;;;;;17.00;74.90;;;;;;5045278;28;20012;-67
2023/05/20 09:53:47;;;;;;;;;;;17.00;74.70;;;;;;5050368;28;19913;-66
2023/05/20 09:56:13;;;;;;;;;;;17.00;74.90;;;;;;5052066;27;19938;-67
2023/05/20 09:58:39;;;;;;;;;;;17.10;74.80;;;;;;5051876;28;19913;-66
2023/05/20 10:01:05;;;;;;;;;;;17.10;74.90;;;;;;5051918;28;19919;-67
2023/05/20 10:03:30;;;;;;;;;;;17.10;74.90;;;;;;5033803;28;19955;-67
2023/05/20 10:06:06;;;;;;;;;;;17.10;74.80;;;;;;5051623;28;20023;-66
2023/05/20 10:08:50;;;;;;;;;;;17.20;74.90;;;;;;5052064;27;19908;-67
2023/05/20 10:11:27;;;;;;;;;;;17.20;74.80;;;;;;5051691;28;20310;-66
2023/05/20 10:14:10;;;;;;;;;;;17.20;74.90;;;;;;5051431;28;19955;-67
2023/05/20 10:16:55;;;;;;;;;;;17.20;74.80;;;;;;5051775;28;19987;-67
2023/05/20 10:19:31;;;;;;;;;;;17.30;74.90;;;;;;5051515;28;19920;-66
2023/05/20 10:22:00;;;;;;;;;;;17.30;75.00;;;;;;5051209;28;19927;-67
2023/05/20 10:24:33;;;;;;;;;;;17.30;75.00;;;;;;5051440;27;19965;-67
2023/05/20 10:27:01;;;;;;;;;;;17.30;74.90;;;;;;5051832;28;19916;-66
2023/05/20 10:29:27;;;;;;;;;;;17.40;74.80;;;;;;5051491;28;19916;-67
2023/05/20 10:31:53;;;;;;;;;;;17.40;74.90;;;;;;5051353;27;20605;-67
2023/05/20 10:34:19;;;;;;;;;;;17.40;74.90;;;;;;5051240;28;19912;-66
2023/05/20 10:37:05;;;;;;;;;;;17.50;75.00;;;;;;5051339;28;19909;-66
2023/05/20 10:39:34;;;;;;;;;;;17.50;75.10;;;;;;5050947;28;19969;-67
2023/05/20 10:42:07;;;;;;;;;;;17.50;74.90;;;;;;5051268;28;19952;-67
2023/05/20 10:44:42;;;;;;;;;;;17.60;74.80;;;;;;5042421;28;19928;-67
2023/05/20 10:47:08;;;;;;;;;;;17.60;75.00;;;;;;5051140;27;19917;-67
2023/05/20 10:49:34;;;;;;;;;;;17.70;74.80;;;;;;5046954;28;19917;-67
2023/05/20 10:52:00;;;;;;;;;;;17.70;74.90;;;;;;5051144;27;20433;-67
2023/05/20 10:54:25;;;;;;;;;;;17.70;74.80;;;;;;5051117;27;19913;-67
2023/05/20 10:56:52;;;;;;;;;;;17.80;74.70;;;;;;5051503;27;19951;-67
2023/05/20 10:59:18;;;;;;;;;;;17.80;74.50;;;;;;5051157;27;19977;-67
2023/05/20 11:01:45;;;;;;;;;;;17.90;74.60;;;;;;5050991;28;20618;-67
2023/05/20 11:04:12;;;;;;;;;;;17.90;74.40;;;;;;5049400;28;19913;-67
2023/05/20 11:06:37;;;;;;;;;;;18.00;74.40;;;;;;5032148;28;19924;-67
2023/05/20 11:09:05;;;;;;;;;;;18.00;74.40;;;;;;5047769;28;19917;-67
2023/05/20 11:11:31;;;;;;;;;;;18.10;74.30;;;;;;5030217;28;19913;-67
2023/05/20 11:13:56;;;;;;;;;;;18.20;74.40;;;;;;5047504;28;19940;-67
2023/05/20 11:16:22;;;;;;;;;;;18.20;74.40;;;;;;5047610;28;20322;-67
2023/05/20 11:18:48;;;;;;;;;;;18.30;74.50;;;;;;5029619;28;20430;-67
2023/05/20 11:21:14;;;;;;;;;;;18.40;74.30;;;;;;5047490;28;20008;-67
2023/05/20 11:23:39;;;;;;;;;;;18.50;74.20;;;;;;5028856;28;19960;-67
2023/05/20 11:26:05;;;;;;;;;;;18.50;74.00;;;;;;5047113;28;19917;-67
2023/05/20 11:28:32;;;;;;;;;;;18.60;73.80;;;;;;5029402;28;19969;-67
2023/05/20 11:30:58;;;;;;;;;;;18.70;73.60;;;;;;5047240;28;20000;-67
2023/05/20 11:33:25;;;;;;;;;;;18.80;73.40;;;;;;5047132;28;19913;-67
2023/05/20 11:35:51;;;;;;;;;;;18.80;73.50;;;;;;5047093;28;20017;-67
2023/05/20 11:38:17;;;;;;;;;;;19.00;73.30;;;;;;5047250;28;19913;-67
2023/05/20 11:40:46;;;;;;;;;;;19.00;73.40;;;;;;5063809;27;19913;-67
2023/05/20 11:43:13;;;;;;;;;;;19.10;73.10;;;;;;5046567;28;19946;-67
2023/05/20 11:45:40;;;;;;;;;;;19.20;73.10;;;;;;5046365;28;19917;-67
2023/05/20 11:48:05;;;;;;;;;;;19.30;72.90;;;;;;5047168;28;19965;-67
2023/05/20 11:50:41;;;;;;;;;;;19.40;73.10;;;;;;5047164;28;19917;-67
2023/05/20 11:53:08;;;;;;;;;;;19.50;72.80;;;;;;5046860;28;19913;-67
2023/05/20 11:55:34;;;;;;;;;;;19.60;72.80;;;;;;5047096;28;20270;-67
2023/05/20 11:58:00;;;;;;;;;;;19.60;72.80;;;;;;5029210;28;19917;-67
2023/05/20 12:00:25;;;;;;;;;;;19.50;72.80;;;;;;5046817;28;19913;-67
2023/05/20 12:02:51;;;;;;;;;;;19.50;73.10;;;;;;5028772;28;19916;-67
2023/05/20 12:05:16;;;;;;;;;;;19.50;73.10;;;;;;5046452;28;20428;-67
2023/05/20 12:07:42;;;;;;;;;;;19.50;73.30;;;;;;5047111;28;19913;-67
2023/05/20 12:10:08;;;;;;;;;;;19.50;73.50;;;;;;5046591;28;19913;-67
2023/05/20 12:12:35;;;;;;;;;;;19.50;73.60;;;;;;5028700;28;19916;-67
2023/05/20 12:15:07;;;;;;;;;;;19.50;73.80;;;;;;5046338;28;20311;-67
2023/05/20 12:17:42;;;;;;;;;;;19.50;73.80;;;;;;5046883;28;20322;-67
2023/05/20 12:20:09;;;;;;;;;;;19.50;73.90;;;;;;5046703;28;19913;-67
2023/05/20 12:22:34;;;;;;;;;;;19.50;73.90;;;;;;5046219;28;19917;-67
2023/05/20 12:25:00;;;;;;;;;;;19.50;73.90;;;;;;5028341;28;20622;-67
2023/05/20 12:27:25;;;;;;;;;;;19.60;73.80;;;;;;5046258;28;19917;-67
2023/05/20 12:29:51;;;;;;;;;;;19.60;73.70;;;;;;5046484;28;20003;-67
2023/05/20 12:32:17;;;;;;;;;;;19.60;73.60;;;;;;5028358;28;19913;-67
2023/05/20 12:34:42;;;;;;;;;;;19.60;73.70;;;;;;5046276;28;19913;-67
2023/05/20 12:37:08;;;;;;;;;;;19.70;73.70;;;;;;5028578;28;20268;-67
2023/05/20 12:39:33;;;;;;;;;;;19.70;73.70;;;;;;5046269;28;19916;-67
2023/05/20 12:41:59;;;;;;;;;;;19.70;73.60;;;;;;5028075;28;19913;-67
2023/05/20 12:44:25;;;;;;;;;;;19.70;73.60;;;;;;5044226;28;19917;-67
2023/05/20 12:46:50;;;;;;;;;;;19.70;73.90;;;;;;5028142;28;20616;-67
2023/05/20 12:49:16;;;;;;;;;;;19.70;74.20;;;;;;5046093;28;19913;-67
2023/05/20 12:51:41;;;;;;;;;;;19.60;74.30;;;;;;5046104;28;19944;-67
2023/05/20 12:54:07;;;;;;;;;;;19.60;74.30;;;;;;5046107;28;20242;-67
2023/05/20 12:56:32;;;;;;;;;;;19.60;74.20;;;;;;5046187;28;20285;-67
2023/05/20 12:58:58;;;;;;;;;;;19.60;74.30;;;;;;5028284;28;19956;-67
2023/05/20 13:01:24;;;;;;;;;;;19.70;74.20;;;;;;5028167;28;19912;-67
2023/05/20 13:03:52;;;;;;;;;;;19.70;74.30;;;;;;5045696;28;19967;-67
2023/05/20 13:06:17;;;;;;;;;;;19.70;74.30;;;;;;5046074;28;20442;-67
2023/05/20 13:08:44;;;;;;;;;;;19.80;74.30;;;;;;5045772;28;20003;-67
2023/05/20 13:11:09;;;;;;;;;;;19.80;74.10;;;;;;5045524;28;20490;-67
2023/05/20 13:13:35;;;;;;;;;;;19.80;74.10;;;;;;5027844;28;19961;-67
2023/05/20 13:16:01;;;;;;;;;;;19.80;74.20;;;;;;5045934;28;20358;-67
2023/05/20 13:18:27;;;;;;;;;;;19.80;74.00;;;;;;5046100;28;19912;-67
2023/05/20 13:20:52;;;;;;;;;;;19.80;74.10;;;;;;5045383;28;20369;-67
2023/05/20 13:23:17;;;;;;;;;;;19.80;74.20;;;;;;5045402;28;19952;-68
2023/05/20 13:25:43;;;;;;;;;;;19.80;74.00;;;;;;5045377;28;19913;-67
2023/05/20 13:28:09;;;;;;;;;;;19.80;74.30;;;;;;5044946;28;20357;-67
2023/05/20 13:30:35;;;;;;;;;;;19.80;74.30;;;;;;5045517;28;19919;-67
2023/05/20 13:33:00;;;;;;;;;;;19.80;74.40;;;;;;5045429;28;20356;-67
2023/05/20 13:35:26;;;;;;;;;;;19.80;74.30;;;;;;5045366;28;19936;-68
2023/05/20 13:37:51;;;;;;;;;;;19.70;74.60;;;;;;5027179;28;20019;-67
2023/05/20 13:40:17;;;;;;;;;;;19.80;74.70;;;;;;5044125;28;19996;-67
2023/05/20 13:42:43;;;;;;;;;;;19.70;74.90;;;;;;5044263;28;19912;-67
2023/05/20 13:45:08;;;;;;;;;;;19.80;74.90;;;;;;5042685;28;20413;-67
2023/05/20 13:47:34;;;;;;;;;;;19.70;74.70;;;;;;5044083;28;19913;-67
2023/05/20 13:49:59;;;;;;;;;;;19.70;74.90;;;;;;5044305;28;20552;-67
2023/05/20 13:52:25;;;;;;;;;;;19.70;74.90;;;;;;5026242;28;20494;-67
2023/05/20 13:54:50;;;;;;;;;;;19.70;74.80;;;;;;5043717;28;19921;-67
2023/05/20 13:57:16;;;;;;;;;;;19.70;75.10;;;;;;5044216;28;20860;-67
2023/05/20 13:59:41;;;;;;;;;;;19.70;75.00;;;;;;5044080;28;19956;-67
2023/05/20 14:02:07;;;;;;;;;;;19.70;75.00;;;;;;5031792;28;19913;-67
2023/05/20 14:04:38;;;;;;;;;;;19.70;75.10;;;;;;5044319;28;20277;-67
2023/05/20 14:07:06;;;;;;;;;;;19.60;75.10;;;;;;5044257;28;19925;-67
2023/05/20 14:09:32;;;;;;;;;;;19.60;75.20;;;;;;5043651;28;19977;-67
2023/05/20 14:11:58;;;;;;;;;;;19.60;75.40;;;;;;5044060;28;19916;-67